Aviation Digital Data Service (ADDS)

Output produced by METARs form (1450 UTC 23 January 2019)
found at http://www.aviationweather.gov/metar/data/
 
METAR text: LTAC 231420Z VRB05KT 9999 SCT030 BKN100 06/02 Q1012 NOSIG RMK RWY21L 35010KT RWY03L 35003KT 310V070 RWY21R 36009KT
Conditions at: LTAC (ANKARA/ESENBOGA , TR) observed 1420 UTC 23 January 2019
Temperature: 6.0°C (43°F)
Dewpoint: 2.0°C (36°F) [RH = 75%]
Pressure (altimeter): 29.88 inches Hg (1012.0 mb)
Winds: variable direction winds at 6 MPH (5 knots; 2.6 m/s)
Visibility: 6 or more miles (10+ km)
Ceiling: 10000 feet AGL
Clouds: scattered clouds at 3000 feet AGL
broken clouds at 10000 feet AGL
Weather: no significant weather observed at this time

METAR text: LTAC 231350Z 14006KT 9999 SCT035 BKN100 07/01 Q1012 NOSIG RMK RWY21L 12005KT RWY03L 13003KT 080V160 RWY21R VRB05KT
Conditions at: LTAC (ANKARA/ESENBOGA , TR) observed 1350 UTC 23 January 2019
Temperature: 7.0°C (45°F)
Dewpoint: 1.0°C (34°F) [RH = 66%]
Pressure (altimeter): 29.88 inches Hg (1012.0 mb)
Winds: from the SE (140 degrees) at 7 MPH (6 knots; 3.1 m/s)
Visibility: 6 or more miles (10+ km)
Ceiling: 10000 feet AGL
Clouds: scattered clouds at 3500 feet AGL
broken clouds at 10000 feet AGL
Weather: no significant weather observed at this time

METAR text: LTAC 231320Z 14007KT 080V160 9999 SCT035 BKN100 08/01 Q1012 NOSIG RMK RWY21L 14008KT RWY03L 13005KT 090V160 RWY21R 04006KT 350V140
Conditions at: LTAC (ANKARA/ESENBOGA , TR) observed 1320 UTC 23 January 2019
Temperature: 8.0°C (46°F)
Dewpoint: 1.0°C (34°F) [RH = 61%]
Pressure (altimeter): 29.88 inches Hg (1012.0 mb)
Winds: from the SE (140 degrees) at 8 MPH (7 knots; 3.6 m/s)
Visibility: 6 or more miles (10+ km)
Ceiling: 10000 feet AGL
Clouds: scattered clouds at 3500 feet AGL
broken clouds at 10000 feet AGL
Weather: no significant weather observed at this time

METAR text: LTAC 231250Z 15006KT 9999 SCT035 SCT100 08/01 Q1012 NOSIG RMK RWY21L 17005KT RWY03L 15005KT RWY21R 17005KT
Conditions at: LTAC (ANKARA/ESENBOGA , TR) observed 1250 UTC 23 January 2019
Temperature: 8.0°C (46°F)
Dewpoint: 1.0°C (34°F) [RH = 61%]
Pressure (altimeter): 29.88 inches Hg (1012.0 mb)
Winds: from the SSE (150 degrees) at 7 MPH (6 knots; 3.1 m/s)
Visibility: 6 or more miles (10+ km)
Ceiling: at least 12,000 feet AGL
Clouds: scattered clouds at 3500 feet AGL
scattered clouds at 10000 feet AGL
Weather: no significant weather observed at this time

METAR text: LTAC 231220Z 15007KT 9999 FEW025 BKN100 07/01 Q1013 NOSIG RMK RWY21L 16006KT 130V190 RWY03L 15005KT RWY21R 15006KT 120V190
Conditions at: LTAC (ANKARA/ESENBOGA , TR) observed 1220 UTC 23 January 2019
Temperature: 7.0°C (45°F)
Dewpoint: 1.0°C (34°F) [RH = 66%]
Pressure (altimeter): 29.91 inches Hg (1013.0 mb)
Winds: from the SSE (150 degrees) at 8 MPH (7 knots; 3.6 m/s)
Visibility: 6 or more miles (10+ km)
Ceiling: 10000 feet AGL
Clouds: few clouds at 2500 feet AGL
broken clouds at 10000 feet AGL
Weather: no significant weather observed at this time

METAR text: LTAC 231150Z 15006KT 070V180 9999 FEW020 SCT035 08/01 Q1013 NOSIG RMK RWY21L VRB02KT RWY03L 14004KT 050V180 RWY21R VRB02KT
Conditions at: LTAC (ANKARA/ESENBOGA , TR) observed 1150 UTC 23 January 2019
Temperature: 8.0°C (46°F)
Dewpoint: 1.0°C (34°F) [RH = 61%]
Pressure (altimeter): 29.91 inches Hg (1013.0 mb)
Winds: from the SSE (150 degrees) at 7 MPH (6 knots; 3.1 m/s)
Visibility: 6 or more miles (10+ km)
Ceiling: at least 12,000 feet AGL
Clouds: few clouds at 2000 feet AGL
scattered clouds at 3500 feet AGL
Weather: no significant weather observed at this time

METAR text: LTAC 231120Z 02004KT 280V090 9999 FEW020 SCT035 07/02 Q1013 NOSIG RMK RWY21L VRB02KT RWY03L VRB03KT RWY21R VRB02KT
Conditions at: LTAC (ANKARA/ESENBOGA , TR) observed 1120 UTC 23 January 2019
Temperature: 7.0°C (45°F)
Dewpoint: 2.0°C (36°F) [RH = 70%]
Pressure (altimeter): 29.91 inches Hg (1013.0 mb)
Winds: from the NNE (20 degrees) at 5 MPH (4 knots; 2.1 m/s)
Visibility: 6 or more miles (10+ km)
Ceiling: at least 12,000 feet AGL
Clouds: few clouds at 2000 feet AGL
scattered clouds at 3500 feet AGL
Weather: no significant weather observed at this time

METAR text: LTAC 231050Z VRB03KT 9999 FEW020 SCT040 08/01 Q1013 NOSIG RMK RWY21L VRB02KT RWY03L 01004KT 320V070 RWY21R 06001KT
Conditions at: LTAC (ANKARA/ESENBOGA , TR) observed 1050 UTC 23 January 2019
Temperature: 8.0°C (46°F)
Dewpoint: 1.0°C (34°F) [RH = 61%]
Pressure (altimeter): 29.91 inches Hg (1013.0 mb)
Winds: variable direction winds at 3 MPH (3 knots; 1.5 m/s)
Visibility: 6 or more miles (10+ km)
Ceiling: at least 12,000 feet AGL
Clouds: few clouds at 2000 feet AGL
scattered clouds at 4000 feet AGL
Weather: no significant weather observed at this time

METAR text: LTAC 231020Z VRB03KT 9999 FEW015 SCT040 07/02 Q1013 NOSIG RMK RWY21L 02003KT 340V060 RWY03L VRB02KT RWY21R VRB01KT
Conditions at: LTAC (ANKARA/ESENBOGA , TR) observed 1020 UTC 23 January 2019
Temperature: 7.0°C (45°F)
Dewpoint: 2.0°C (36°F) [RH = 70%]
Pressure (altimeter): 29.91 inches Hg (1013.0 mb)
Winds: variable direction winds at 3 MPH (3 knots; 1.5 m/s)
Visibility: 6 or more miles (10+ km)
Ceiling: at least 12,000 feet AGL
Clouds: few clouds at 1500 feet AGL
scattered clouds at 4000 feet AGL
Weather: no significant weather observed at this time

METAR text: LTAC 230950Z 19003KT 130V280 9999 FEW015 SCT040 07/01 Q1014 NOSIG RMK RWY21L 34003KT 300V020 RWY03L VRB02KT RWY21R VRB01KT
Conditions at: LTAC (ANKARA/ESENBOGA , TR) observed 0950 UTC 23 January 2019
Temperature: 7.0°C (45°F)
Dewpoint: 1.0°C (34°F) [RH = 66%]
Pressure (altimeter): 29.94 inches Hg (1014.0 mb)
Winds: from the S (190 degrees) at 3 MPH (3 knots; 1.5 m/s)
Visibility: 6 or more miles (10+ km)
Ceiling: at least 12,000 feet AGL
Clouds: few clouds at 1500 feet AGL
scattered clouds at 4000 feet AGL
Weather: no significant weather observed at this time

METAR text: LTAC 230920Z VRB02KT 9999 SCT040 05/01 Q1014 NOSIG RMK RWY21L VRB02KT RWY03L VRB02KT RWY21R VRB01KT
Conditions at: LTAC (ANKARA/ESENBOGA , TR) observed 0920 UTC 23 January 2019
Temperature: 5.0°C (41°F)
Dewpoint: 1.0°C (34°F) [RH = 75%]
Pressure (altimeter): 29.94 inches Hg (1014.0 mb)
Winds: variable direction winds at 2 MPH (2 knots; 1.0 m/s)
Visibility: 6 or more miles (10+ km)
Ceiling: at least 12,000 feet AGL
Clouds: scattered clouds at 4000 feet AGL
Weather: no significant weather observed at this time

METAR text: LTAC 230850Z 31001KT 9000 SCT035 05/01 Q1015 NOSIG RMK RWY21L VRB01KT RWY03L VRB01KT RWY21R VRB02KT
Conditions at: LTAC (ANKARA/ESENBOGA , TR) observed 0850 UTC 23 January 2019
Temperature: 5.0°C (41°F)
Dewpoint: 1.0°C (34°F) [RH = 75%]
Pressure (altimeter): 29.97 inches Hg (1015.0 mb)
Winds: from the NW (310 degrees) at 1 MPH (1 knots; 0.5 m/s)
Visibility: 6 miles ( 9 km)
Ceiling: at least 12,000 feet AGL
Clouds: scattered clouds at 3500 feet AGL
Weather: no significant weather observed at this time

METAR text: LTAC 230820Z VRB02KT 8000 BKN025 03/00 Q1015 NOSIG RMK RWY21L VRB02KT RWY03L VRB01KT RWY21R VRB02KT
Conditions at: LTAC (ANKARA/ESENBOGA , TR) observed 0820 UTC 23 January 2019
Temperature: 3.0°C (37°F)
Dewpoint: 0.0°C (32°F) [RH = 81%]
Pressure (altimeter): 29.97 inches Hg (1015.0 mb)
Winds: variable direction winds at 2 MPH (2 knots; 1.0 m/s)
Visibility: 5 miles ( 8 km)
Ceiling: 2500 feet AGL
Clouds: broken clouds at 2500 feet AGL
Weather: no significant weather observed at this time

METAR text: LTAC 230750Z 05004KT 010V080 6000 BKN025 03/00 Q1015 NOSIG RMK RWY21L 01004KT 340V050 RWY03L 04003KT 010V080 RWY21R 02005KT 350V050
Conditions at: LTAC (ANKARA/ESENBOGA , TR) observed 0750 UTC 23 January 2019
Temperature: 3.0°C (37°F)
Dewpoint: 0.0°C (32°F) [RH = 81%]
Pressure (altimeter): 29.97 inches Hg (1015.0 mb)
Winds: from the NE (50 degrees) at 5 MPH (4 knots; 2.1 m/s)
Visibility: 4 miles ( 6 km)
Ceiling: 2500 feet AGL
Clouds: broken clouds at 2500 feet AGL
Weather: no significant weather observed at this time

METAR text: LTAC 230720Z 01004KT 3900 BR FEW005 BKN025 02/01 Q1015 BECMG 9999 NSW
Conditions at: LTAC (ANKARA/ESENBOGA , TR) observed 0720 UTC 23 January 2019
Temperature: 2.0°C (36°F)
Dewpoint: 1.0°C (34°F) [RH = 93%]
Pressure (altimeter): 29.97 inches Hg (1015.0 mb)
Winds: from the N (10 degrees) at 5 MPH (4 knots; 2.1 m/s)
Visibility: 2.42 miles (3.89 km)
Ceiling: 2500 feet AGL
Clouds: few clouds at 500 feet AGL
broken clouds at 2500 feet AGL
Weather: BR  (mist)

METAR text: LTAC 230650Z 13004KT 2700 BR FEW003 BKN025 01/00 Q1015 BECMG 4000
Conditions at: LTAC (ANKARA/ESENBOGA , TR) observed 0650 UTC 23 January 2019
Temperature: 1.0°C (34°F)
Dewpoint: 0.0°C (32°F) [RH = 93%]
Pressure (altimeter): 29.97 inches Hg (1015.0 mb)
Winds: from the SE (130 degrees) at 5 MPH (4 knots; 2.1 m/s)
Visibility: 1.68 miles (2.70 km)
Ceiling: 2500 feet AGL
Clouds: few clouds at 300 feet AGL
broken clouds at 2500 feet AGL
Weather: BR  (mist)

METAR text: LTAC 230620Z 33003KT 2200 BR SCT002 BKN025 00/00 Q1015 BECMG TL0700 1200 BCFG BKN002
Conditions at: LTAC (ANKARA/ESENBOGA , TR) observed 0620 UTC 23 January 2019
Temperature: 0.0°C (32°F)
Dewpoint: 0.0°C (32°F) [RH = 100%]
Pressure (altimeter): 29.97 inches Hg (1015.0 mb)
Winds: from the NNW (330 degrees) at 3 MPH (3 knots; 1.5 m/s)
Visibility: 1.37 miles (2.20 km)
Ceiling: 2500 feet AGL
Clouds: scattered clouds at 200 feet AGL
broken clouds at 2500 feet AGL
Weather: BR  (mist)

METAR text: LTAC 230550Z VRB02KT 1600 BR SCT017 BKN025 00/M00 Q1015 TEMPO 1200 BCFG BKN002
Conditions at: LTAC (ANKARA/ESENBOGA , TR) observed 0550 UTC 23 January 2019
Temperature: 0.0°C (32°F)
Dewpoint: 0.0°C (32°F) [RH = 100%]
Pressure (altimeter): 29.97 inches Hg (1015.0 mb)
Winds: variable direction winds at 2 MPH (2 knots; 1.0 m/s)
Visibility: 0.99 miles (1.59 km)
Ceiling: 2500 feet AGL
Clouds: scattered clouds at 1700 feet AGL
broken clouds at 2500 feet AGL
Weather: BR  (mist)

METAR text: LTAC 230520Z 13001KT 2100 R21L/P1500U R21R/P1500U BR SCT017 BKN025 M00/M00 Q1014 TEMPO 1200 BCFG
Conditions at: LTAC (ANKARA/ESENBOGA , TR) observed 0520 UTC 23 January 2019
Temperature: 0.0°C (32°F)
Dewpoint: 0.0°C (32°F) [RH = 100%]
Pressure (altimeter): 29.94 inches Hg (1014.0 mb)
Winds: from the SE (130 degrees) at 1 MPH (1 knots; 0.5 m/s)
Visibility: 1.30 miles (2.09 km)
Ceiling: 2500 feet AGL
Clouds: scattered clouds at 1700 feet AGL
broken clouds at 2500 feet AGL
Weather: BR  (mist)

METAR text: LTAC 230450Z 13003KT 2400 BR FEW001 BKN017 M00/M01 Q1014 TEMPO 1200 BCFG
Conditions at: LTAC (ANKARA/ESENBOGA , TR) observed 0450 UTC 23 January 2019
Temperature: 0.0°C (32°F)
Dewpoint: -1.0°C (30°F) [RH = 93%]
Pressure (altimeter): 29.94 inches Hg (1014.0 mb)
Winds: from the SE (130 degrees) at 3 MPH (3 knots; 1.5 m/s)
Visibility: 1.49 miles (2.40 km)
Ceiling: 1700 feet AGL
Clouds: few clouds at 100 feet AGL
broken clouds at 1700 feet AGL
Weather: BR  (mist)

METAR text: LTAC 230420Z 13002KT 2200 BR BKN001 BKN025 M00/M00 Q1014 BECMG 1200 BCFG
Conditions at: LTAC (ANKARA/ESENBOGA , TR) observed 0420 UTC 23 January 2019
Temperature: 0.0°C (32°F)
Dewpoint: 0.0°C (32°F) [RH = 100%]
Pressure (altimeter): 29.94 inches Hg (1014.0 mb)
Winds: from the SE (130 degrees) at 2 MPH (2 knots; 1.0 m/s)
Visibility: 1.37 miles (2.20 km)
Ceiling: 100 feet AGL
Clouds: broken clouds at 100 feet AGL
broken clouds at 2500 feet AGL
Weather: BR  (mist)

METAR text: LTAC 230350Z 00000KT 2500 R03R/P1500U R21L/1500U R03L/P1500U R21R/1400N BR SCT002 BKN025 M00/M01 Q1014 BECMG 1200 BCFG
Conditions at: LTAC (ANKARA/ESENBOGA , TR) observed 0350 UTC 23 January 2019
Temperature: 0.0°C (32°F)
Dewpoint: -1.0°C (30°F) [RH = 93%]
Pressure (altimeter): 29.94 inches Hg (1014.0 mb)
Winds: calm
Visibility: 1.55 miles (2.49 km)
Ceiling: 2500 feet AGL
Clouds: scattered clouds at 200 feet AGL
broken clouds at 2500 feet AGL
Weather: BR  (mist)

METAR text: LTAC 230320Z 13003KT 0800 R03R/1400D R21L/0600D R03L/1400D R21R/0650U BCFG BKN002 BKN020 M00/M01 Q1014 TEMPO 0200 FZFG
Conditions at: LTAC (ANKARA/ESENBOGA , TR) observed 0320 UTC 23 January 2019
Temperature: 0.0°C (32°F)
Dewpoint: -1.0°C (30°F) [RH = 93%]
Pressure (altimeter): 29.94 inches Hg (1014.0 mb)
Winds: from the SE (130 degrees) at 3 MPH (3 knots; 1.5 m/s)
Visibility: 0.50 miles (0.80 km)
Ceiling: 200 feet AGL
Clouds: broken clouds at 200 feet AGL
broken clouds at 2000 feet AGL
Weather: BCFG  (patches of fog)

METAR text: LTAC 230250Z 00000KT 0600 R03R/P1500U R21L/0500U R03L/P1500U R21R/0600U BCFG BKN002 BKN025 M00/M01 Q1014 TEMPO 0200 FZFG
Conditions at: LTAC (ANKARA/ESENBOGA , TR) observed 0250 UTC 23 January 2019
Temperature: 0.0°C (32°F)
Dewpoint: -1.0°C (30°F) [RH = 93%]
Pressure (altimeter): 29.94 inches Hg (1014.0 mb)
Winds: calm
Visibility: 0.37 miles (0.60 km)
Ceiling: 200 feet AGL
Clouds: broken clouds at 200 feet AGL
broken clouds at 2500 feet AGL
Weather: BCFG  (patches of fog)

METAR text: LTAC 230220Z 13003KT 100V160 0750 R03R/P1500U R21L/0500U R03L/P1500U R21R/0550U BCFG SCT002 BKN025 M00/M01 Q1014 TEMPO 0200 FZFG
Conditions at: LTAC (ANKARA/ESENBOGA , TR) observed 0220 UTC 23 January 2019
Temperature: 0.0°C (32°F)
Dewpoint: -1.0°C (30°F) [RH = 93%]
Pressure (altimeter): 29.94 inches Hg (1014.0 mb)
Winds: from the SE (130 degrees) at 3 MPH (3 knots; 1.5 m/s)
Visibility: 0.47 miles (0.76 km)
Ceiling: 2500 feet AGL
Clouds: scattered clouds at 200 feet AGL
broken clouds at 2500 feet AGL
Weather: BCFG  (patches of fog)

METAR text: LTAC 230150Z 00000KT 0700 R03R/P1500U R21L/0600D R03L/P1500N R21R/0650U BCFG SCT002 BKN025 M00/M01 Q1014 TEMPO 0200 FZFG BKN002
Conditions at: LTAC (ANKARA/ESENBOGA , TR) observed 0150 UTC 23 January 2019
Temperature: 0.0°C (32°F)
Dewpoint: -1.0°C (30°F) [RH = 93%]
Pressure (altimeter): 29.94 inches Hg (1014.0 mb)
Winds: calm
Visibility: 0.43 miles (0.69 km)
Ceiling: 2500 feet AGL
Clouds: scattered clouds at 200 feet AGL
broken clouds at 2500 feet AGL
Weather: BCFG  (patches of fog)

METAR text: LTAC 230120Z 11003KT 3700 BR SCT002 BKN025 M00/M01 Q1014 NOSIG RMK RWY21L 00000KT RWY03L 10002KT RWY21R 15002KT
Conditions at: LTAC (ANKARA/ESENBOGA , TR) observed 0120 UTC 23 January 2019
Temperature: 0.0°C (32°F)
Dewpoint: -1.0°C (30°F) [RH = 93%]
Pressure (altimeter): 29.94 inches Hg (1014.0 mb)
Winds: from the ESE (110 degrees) at 3 MPH (3 knots; 1.5 m/s)
Visibility: 2.30 miles (3.70 km)
Ceiling: 2500 feet AGL
Clouds: scattered clouds at 200 feet AGL
broken clouds at 2500 feet AGL
Weather: BR  (mist)

METAR text: LTAC 230050Z VRB02KT 3700 BR SCT004 BKN025 00/M01 Q1015 NOSIG RMK RWY21L 00000KT RWY03L VRB01KT RWY21R VRB01KT
Conditions at: LTAC (ANKARA/ESENBOGA , TR) observed 0050 UTC 23 January 2019
Temperature: 0.0°C (32°F)
Dewpoint: -1.0°C (30°F) [RH = 93%]
Pressure (altimeter): 29.97 inches Hg (1015.0 mb)
Winds: variable direction winds at 2 MPH (2 knots; 1.0 m/s)
Visibility: 2.30 miles (3.70 km)
Ceiling: 2500 feet AGL
Clouds: scattered clouds at 400 feet AGL
broken clouds at 2500 feet AGL
Weather: BR  (mist)

METAR text: LTAC 230020Z VRB01KT 4400 BR SCT004 BKN030 00/M01 Q1015 NOSIG RMK RWY21L 00000KT RWY03L VRB02KT RWY21R 00000KT
Conditions at: LTAC (ANKARA/ESENBOGA , TR) observed 0020 UTC 23 January 2019
Temperature: 0.0°C (32°F)
Dewpoint: -1.0°C (30°F) [RH = 93%]
Pressure (altimeter): 29.97 inches Hg (1015.0 mb)
Winds: variable direction winds at 1 MPH (1 knots; 0.5 m/s)
Visibility: 2.73 miles (4.39 km)
Ceiling: 3000 feet AGL
Clouds: scattered clouds at 400 feet AGL
broken clouds at 3000 feet AGL
Weather: BR  (mist)

METAR text: LTAC 222350Z VRB02KT 4500 BR BKN020 00/M01 Q1015 NOSIG RMK RWY21L 00000KT RWY03L 01002KT RWY21R VRB02KT
Conditions at: LTAC (ANKARA/ESENBOGA , TR) observed 2350 UTC 22 January 2019
Temperature: 0.0°C (32°F)
Dewpoint: -1.0°C (30°F) [RH = 93%]
Pressure (altimeter): 29.97 inches Hg (1015.0 mb)
Winds: variable direction winds at 2 MPH (2 knots; 1.0 m/s)
Visibility: 2.80 miles (4.51 km)
Ceiling: 2000 feet AGL
Clouds: broken clouds at 2000 feet AGL
Weather: BR  (mist)

METAR text: LTAC 222320Z 03004KT 7000 SCT010 BKN030 00/M01 Q1015 BECMG 4000 BR
Conditions at: LTAC (ANKARA/ESENBOGA , TR) observed 2320 UTC 22 January 2019
Temperature: 0.0°C (32°F)
Dewpoint: -1.0°C (30°F) [RH = 93%]
Pressure (altimeter): 29.97 inches Hg (1015.0 mb)
Winds: from the NNE (30 degrees) at 5 MPH (4 knots; 2.1 m/s)
Visibility: 4 miles ( 7 km)
Ceiling: 3000 feet AGL
Clouds: scattered clouds at 1000 feet AGL
broken clouds at 3000 feet AGL
Weather: no significant weather observed at this time

METAR text: LTAC 222250Z 01003KT 8000 SCT010 BKN030 00/M01 Q1015 NOSIG RMK RWY21L 36005KT RWY03L VRB02KT RWY21R 02004KT
Conditions at: LTAC (ANKARA/ESENBOGA , TR) observed 2250 UTC 22 January 2019
Temperature: 0.0°C (32°F)
Dewpoint: -1.0°C (30°F) [RH = 93%]
Pressure (altimeter): 29.97 inches Hg (1015.0 mb)
Winds: from the N (10 degrees) at 3 MPH (3 knots; 1.5 m/s)
Visibility: 5 miles ( 8 km)
Ceiling: 3000 feet AGL
Clouds: scattered clouds at 1000 feet AGL
broken clouds at 3000 feet AGL
Weather: no significant weather observed at this time

METAR text: LTAC 222220Z VRB02KT 7000 SCT010 BKN030 00/M01 Q1016 BECMG 4000 BR BKN012
Conditions at: LTAC (ANKARA/ESENBOGA , TR) observed 2220 UTC 22 January 2019
Temperature: 0.0°C (32°F)
Dewpoint: -1.0°C (30°F) [RH = 93%]
Pressure (altimeter): 30.00 inches Hg (1016.0 mb)
Winds: variable direction winds at 2 MPH (2 knots; 1.0 m/s)
Visibility: 4 miles ( 7 km)
Ceiling: 3000 feet AGL
Clouds: scattered clouds at 1000 feet AGL
broken clouds at 3000 feet AGL
Weather: no significant weather observed at this time

METAR text: LTAC 222150Z VRB01KT 6000 SCT005 BKN030 00/M01 Q1016 NOSIG RMK RWY21L 00000KT RWY03L VRB01KT RWY21R 02002KT
Conditions at: LTAC (ANKARA/ESENBOGA , TR) observed 2150 UTC 22 January 2019
Temperature: 0.0°C (32°F)
Dewpoint: -1.0°C (30°F) [RH = 93%]
Pressure (altimeter): 30.00 inches Hg (1016.0 mb)
Winds: variable direction winds at 1 MPH (1 knots; 0.5 m/s)
Visibility: 4 miles ( 6 km)
Ceiling: 3000 feet AGL
Clouds: scattered clouds at 500 feet AGL
broken clouds at 3000 feet AGL
Weather: no significant weather observed at this time

METAR text: LTAC 222120Z 02005KT 6000 SCT010 BKN030 00/M01 Q1016 NOSIG RMK RWY21L VRB02KT RWY03L 02003KT RWY21R 02006KT
Conditions at: LTAC (ANKARA/ESENBOGA , TR) observed 2120 UTC 22 January 2019
Temperature: 0.0°C (32°F)
Dewpoint: -1.0°C (30°F) [RH = 93%]
Pressure (altimeter): 30.00 inches Hg (1016.0 mb)
Winds: from the NNE (20 degrees) at 6 MPH (5 knots; 2.6 m/s)
Visibility: 4 miles ( 6 km)
Ceiling: 3000 feet AGL
Clouds: scattered clouds at 1000 feet AGL
broken clouds at 3000 feet AGL
Weather: no significant weather observed at this time

METAR text: LTAC 222050Z 33004KT 6000 SCT005 BKN040 01/M01 Q1016 NOSIG RMK RWY21L 02004KT RWY03L 33003KT 310V010 RWY21R 04005KT
Conditions at: LTAC (ANKARA/ESENBOGA , TR) observed 2050 UTC 22 January 2019
Temperature: 1.0°C (34°F)
Dewpoint: -1.0°C (30°F) [RH = 86%]
Pressure (altimeter): 30.00 inches Hg (1016.0 mb)
Winds: from the NNW (330 degrees) at 5 MPH (4 knots; 2.1 m/s)
Visibility: 4 miles ( 6 km)
Ceiling: 4000 feet AGL
Clouds: scattered clouds at 500 feet AGL
broken clouds at 4000 feet AGL
Weather: no significant weather observed at this time

METAR text: LTAC 222020Z 36004KT 8000 SCT010 BKN040 00/M01 Q1016 NOSIG RMK RWY21L 34004KT RWY03L 35002KT RWY21R 35005KT
Conditions at: LTAC (ANKARA/ESENBOGA , TR) observed 2020 UTC 22 January 2019
Temperature: 0.0°C (32°F)
Dewpoint: -1.0°C (30°F) [RH = 93%]
Pressure (altimeter): 30.00 inches Hg (1016.0 mb)
Winds: from the N (360 degrees) at 5 MPH (4 knots; 2.1 m/s)
Visibility: 5 miles ( 8 km)
Ceiling: 4000 feet AGL
Clouds: scattered clouds at 1000 feet AGL
broken clouds at 4000 feet AGL
Weather: no significant weather observed at this time

METAR text: LTAC 221950Z 34005KT 7000 BKN030 00/M01 Q1016 NOSIG RMK RWY21L VRB01KT RWY03L 33005KT RWY21R 30003KT 270V330
Conditions at: LTAC (ANKARA/ESENBOGA , TR) observed 1950 UTC 22 January 2019
Temperature: 0.0°C (32°F)
Dewpoint: -1.0°C (30°F) [RH = 93%]
Pressure (altimeter): 30.00 inches Hg (1016.0 mb)
Winds: from the NNW (340 degrees) at 6 MPH (5 knots; 2.6 m/s)
Visibility: 4 miles ( 7 km)
Ceiling: 3000 feet AGL
Clouds: broken clouds at 3000 feet AGL
Weather: no significant weather observed at this time

METAR text: LTAC 221920Z 25003KT 200V340 7000 SCT005 BKN030 01/M01 Q1016 NOSIG RMK RWY21L 00000KT RWY03L VRB02KT RWY21R VRB02KT
Conditions at: LTAC (ANKARA/ESENBOGA , TR) observed 1920 UTC 22 January 2019
Temperature: 1.0°C (34°F)
Dewpoint: -1.0°C (30°F) [RH = 86%]
Pressure (altimeter): 30.00 inches Hg (1016.0 mb)
Winds: from the WSW (250 degrees) at 3 MPH (3 knots; 1.5 m/s)
Visibility: 4 miles ( 7 km)
Ceiling: 3000 feet AGL
Clouds: scattered clouds at 500 feet AGL
broken clouds at 3000 feet AGL
Weather: no significant weather observed at this time

METAR text: LTAC 221850Z VRB02KT 7000 SCT005 BKN030 01/M01 Q1016 NOSIG RMK RWY21L 00000KT RWY03L 03003KT RWY21R 02006KT
Conditions at: LTAC (ANKARA/ESENBOGA , TR) observed 1850 UTC 22 January 2019
Temperature: 1.0°C (34°F)
Dewpoint: -1.0°C (30°F) [RH = 86%]
Pressure (altimeter): 30.00 inches Hg (1016.0 mb)
Winds: variable direction winds at 2 MPH (2 knots; 1.0 m/s)
Visibility: 4 miles ( 7 km)
Ceiling: 3000 feet AGL
Clouds: scattered clouds at 500 feet AGL
broken clouds at 3000 feet AGL
Weather: no significant weather observed at this time

METAR text: LTAC 221820Z 02004KT 7000 SCT020 BKN040 00/M01 Q1016 NOSIG RMK RWY21L 35005KT RWY03L 01003KT RWY21R 01005KT
Conditions at: LTAC (ANKARA/ESENBOGA , TR) observed 1820 UTC 22 January 2019
Temperature: 0.0°C (32°F)
Dewpoint: -1.0°C (30°F) [RH = 93%]
Pressure (altimeter): 30.00 inches Hg (1016.0 mb)
Winds: from the NNE (20 degrees) at 5 MPH (4 knots; 2.1 m/s)
Visibility: 4 miles ( 7 km)
Ceiling: 4000 feet AGL
Clouds: scattered clouds at 2000 feet AGL
broken clouds at 4000 feet AGL
Weather: no significant weather observed at this time

METAR text: LTAC 221750Z 01007KT 7000 SCT020 BKN040 00/M01 Q1016 NOSIG RMK RWY21L 35006KT RWY03L 36006KT RWY21R 36006KT
Conditions at: LTAC (ANKARA/ESENBOGA , TR) observed 1750 UTC 22 January 2019
Temperature: 0.0°C (32°F)
Dewpoint: -1.0°C (30°F) [RH = 93%]
Pressure (altimeter): 30.00 inches Hg (1016.0 mb)
Winds: from the N (10 degrees) at 8 MPH (7 knots; 3.6 m/s)
Visibility: 4 miles ( 7 km)
Ceiling: 4000 feet AGL
Clouds: scattered clouds at 2000 feet AGL
broken clouds at 4000 feet AGL
Weather: no significant weather observed at this time

METAR text: LTAC 221720Z 02007KT 7000 BKN020 01/M01 Q1016 NOSIG RMK RWY21L 36006KT RWY03L 01005KT RWY21R 01008KT
Conditions at: LTAC (ANKARA/ESENBOGA , TR) observed 1720 UTC 22 January 2019
Temperature: 1.0°C (34°F)
Dewpoint: -1.0°C (30°F) [RH = 86%]
Pressure (altimeter): 30.00 inches Hg (1016.0 mb)
Winds: from the NNE (20 degrees) at 8 MPH (7 knots; 3.6 m/s)
Visibility: 4 miles ( 7 km)
Ceiling: 2000 feet AGL
Clouds: broken clouds at 2000 feet AGL
Weather: no significant weather observed at this time

METAR text: LTAC 221650Z 36004KT 8000 BKN016 01/M01 Q1017 NOSIG RMK RWY21L 36006KT RWY03L VRB02KT RWY21R 01007KT
Conditions at: LTAC (ANKARA/ESENBOGA , TR) observed 1650 UTC 22 January 2019
Temperature: 1.0°C (34°F)
Dewpoint: -1.0°C (30°F) [RH = 86%]
Pressure (altimeter): 30.03 inches Hg (1017.0 mb)
Winds: from the N (360 degrees) at 5 MPH (4 knots; 2.1 m/s)
Visibility: 5 miles ( 8 km)
Ceiling: 1600 feet AGL
Clouds: broken clouds at 1600 feet AGL
Weather: no significant weather observed at this time

METAR text: LTAC 221620Z 35005KT 320V030 8000 BKN016 01/M01 Q1017 NOSIG RMK RWY21L 36005KT RWY03L 36004KT RWY21R 36006KT
Conditions at: LTAC (ANKARA/ESENBOGA , TR) observed 1620 UTC 22 January 2019
Temperature: 1.0°C (34°F)
Dewpoint: -1.0°C (30°F) [RH = 86%]
Pressure (altimeter): 30.03 inches Hg (1017.0 mb)
Winds: from the N (350 degrees) at 6 MPH (5 knots; 2.6 m/s)
Visibility: 5 miles ( 8 km)
Ceiling: 1600 feet AGL
Clouds: broken clouds at 1600 feet AGL
Weather: no significant weather observed at this time

METAR text: LTAC 221550Z 01008KT 8000 BKN028 01/M01 Q1017 NOSIG RMK RWY21L 01006KT RWY03L 01006KT RWY21R 02008KT
Conditions at: LTAC (ANKARA/ESENBOGA , TR) observed 1550 UTC 22 January 2019
Temperature: 1.0°C (34°F)
Dewpoint: -1.0°C (30°F) [RH = 86%]
Pressure (altimeter): 30.03 inches Hg (1017.0 mb)
Winds: from the N (10 degrees) at 9 MPH (8 knots; 4.1 m/s)
Visibility: 5 miles ( 8 km)
Ceiling: 2800 feet AGL
Clouds: broken clouds at 2800 feet AGL
Weather: no significant weather observed at this time

METAR text: LTAC 221520Z 02007KT 8000 BKN026 01/M01 Q1016 NOSIG RMK RWY21L 01006KT RWY03L 02005KT RWY21R 02008KT
Conditions at: LTAC (ANKARA/ESENBOGA , TR) observed 1520 UTC 22 January 2019
Temperature: 1.0°C (34°F)
Dewpoint: -1.0°C (30°F) [RH = 86%]
Pressure (altimeter): 30.00 inches Hg (1016.0 mb)
Winds: from the NNE (20 degrees) at 8 MPH (7 knots; 3.6 m/s)
Visibility: 5 miles ( 8 km)
Ceiling: 2600 feet AGL
Clouds: broken clouds at 2600 feet AGL
Weather: no significant weather observed at this time

METAR text: LTAC 221450Z 02006KT 360V060 8000 BKN017 01/M00 Q1017 NOSIG RMK RWY21L 03006KT RWY03L 02005KT RWY21R 03006KT
Conditions at: LTAC (ANKARA/ESENBOGA , TR) observed 1450 UTC 22 January 2019
Temperature: 1.0°C (34°F)
Dewpoint: 0.0°C (32°F) [RH = 93%]
Pressure (altimeter): 30.03 inches Hg (1017.0 mb)
Winds: from the NNE (20 degrees) at 7 MPH (6 knots; 3.1 m/s)
Visibility: 5 miles ( 8 km)
Ceiling: 1700 feet AGL
Clouds: broken clouds at 1700 feet AGL
Weather: no significant weather observed at this time

METAR text: LTAC 221420Z 02006KT 8000 BKN017 02/M00 Q1017 NOSIG RMK RWY21L 03006KT RWY03L 02006KT RWY21R 02006KT
Conditions at: LTAC (ANKARA/ESENBOGA , TR) observed 1420 UTC 22 January 2019
Temperature: 2.0°C (36°F)
Dewpoint: 0.0°C (32°F) [RH = 87%]
Pressure (altimeter): 30.03 inches Hg (1017.0 mb)
Winds: from the NNE (20 degrees) at 7 MPH (6 knots; 3.1 m/s)
Visibility: 5 miles ( 8 km)
Ceiling: 1700 feet AGL
Clouds: broken clouds at 1700 feet AGL
Weather: no significant weather observed at this time

METAR text: LTAC 221350Z 02006KT 8000 BKN017 02/M00 Q1017 NOSIG RMK RWY21L 01006KT RWY03L 02005KT RWY21R 03006KT
Conditions at: LTAC (ANKARA/ESENBOGA , TR) observed 1350 UTC 22 January 2019
Temperature: 2.0°C (36°F)
Dewpoint: 0.0°C (32°F) [RH = 87%]
Pressure (altimeter): 30.03 inches Hg (1017.0 mb)
Winds: from the NNE (20 degrees) at 7 MPH (6 knots; 3.1 m/s)
Visibility: 5 miles ( 8 km)
Ceiling: 1700 feet AGL
Clouds: broken clouds at 1700 feet AGL
Weather: no significant weather observed at this time

METAR text: LTAC 221320Z 04005KT 8000 SCT020 SCT040 02/M00 Q1017 BECMG 4000 BR
Conditions at: LTAC (ANKARA/ESENBOGA , TR) observed 1320 UTC 22 January 2019
Temperature: 2.0°C (36°F)
Dewpoint: 0.0°C (32°F) [RH = 87%]
Pressure (altimeter): 30.03 inches Hg (1017.0 mb)
Winds: from the NE (40 degrees) at 6 MPH (5 knots; 2.6 m/s)
Visibility: 5 miles ( 8 km)
Ceiling: at least 12,000 feet AGL
Clouds: scattered clouds at 2000 feet AGL
scattered clouds at 4000 feet AGL
Weather: no significant weather observed at this time

METAR text: LTAC 221250Z 01005KT 4500 BR SCT020 SCT040 02/M00 Q1017 NOSIG RMK RWY21L 02006KT RWY03L 01004KT 340V040 RWY21R 02006KT
Conditions at: LTAC (ANKARA/ESENBOGA , TR) observed 1250 UTC 22 January 2019
Temperature: 2.0°C (36°F)
Dewpoint: 0.0°C (32°F) [RH = 87%]
Pressure (altimeter): 30.03 inches Hg (1017.0 mb)
Winds: from the N (10 degrees) at 6 MPH (5 knots; 2.6 m/s)
Visibility: 2.80 miles (4.51 km)
Ceiling: at least 12,000 feet AGL
Clouds: scattered clouds at 2000 feet AGL
scattered clouds at 4000 feet AGL
Weather: BR  (mist)

METAR text: LTAC 221220Z 36004KT 4000 BR BKN014 02/01 Q1017 NOSIG RMK RWY21L 02005KT RWY03L 36003KT RWY21R 04006KT
Conditions at: LTAC (ANKARA/ESENBOGA , TR) observed 1220 UTC 22 January 2019
Temperature: 2.0°C (36°F)
Dewpoint: 1.0°C (34°F) [RH = 93%]
Pressure (altimeter): 30.03 inches Hg (1017.0 mb)
Winds: from the N (360 degrees) at 5 MPH (4 knots; 2.1 m/s)
Visibility: 2.49 miles (4.01 km)
Ceiling: 1400 feet AGL
Clouds: broken clouds at 1400 feet AGL
Weather: BR  (mist)

METAR text: LTAC 221150Z 32004KT 290V350 2500 BR BKN014 01/01 Q1017 NOSIG RMK RWY21L 32005KT RWY03L 33003KT RWY21R 31005KT
Conditions at: LTAC (ANKARA/ESENBOGA , TR) observed 1150 UTC 22 January 2019
Temperature: 1.0°C (34°F)
Dewpoint: 1.0°C (34°F) [RH = 100%]
Pressure (altimeter): 30.03 inches Hg (1017.0 mb)
Winds: from the NW (320 degrees) at 5 MPH (4 knots; 2.1 m/s)
Visibility: 1.55 miles (2.49 km)
Ceiling: 1400 feet AGL
Clouds: broken clouds at 1400 feet AGL
Weather: BR  (mist)

METAR text: LTAC 221120Z 31004KT 1600 R03R/1200N R21L/P1500U R03L/1300U R21R/P1500U BCFG BKN006 01/00 Q1017 BECMG BKN012
Conditions at: LTAC (ANKARA/ESENBOGA , TR) observed 1120 UTC 22 January 2019
Temperature: 1.0°C (34°F)
Dewpoint: 0.0°C (32°F) [RH = 93%]
Pressure (altimeter): 30.03 inches Hg (1017.0 mb)
Winds: from the NW (310 degrees) at 5 MPH (4 knots; 2.1 m/s)
Visibility: 0.99 miles (1.59 km)
Ceiling: 600 feet AGL
Clouds: broken clouds at 600 feet AGL
Weather: BCFG  (patches of fog)

METAR text: LTAC 221050Z 35003KT 310V030 2000 R03R/P1500N R21L/P1500U R03L/1200U R21R/P1500U BCFG BKN002 01/00 Q1017 BECMG BKN012 RMK RWY21L 03003KT 010V070 RWY03L VRB01KT RWY21R 35002KT
Conditions at: LTAC (ANKARA/ESENBOGA , TR) observed 1050 UTC 22 January 2019
Temperature: 1.0°C (34°F)
Dewpoint: 0.0°C (32°F) [RH = 93%]
Pressure (altimeter): 30.03 inches Hg (1017.0 mb)
Winds: from the N (350 degrees) at 3 MPH (3 knots; 1.5 m/s)
Visibility: 1.24 miles (2.00 km)
Ceiling: 200 feet AGL
Clouds: broken clouds at 200 feet AGL
Weather: BCFG  (patches of fog)

METAR text: LTAC 221020Z 31004KT 280V340 0700 R03R/0250N R21L/P1500U R03L/0175U R21R/P1500U BCFG BKN006 00/00 Q1018 BECMG 2500 BR
Conditions at: LTAC (ANKARA/ESENBOGA , TR) observed 1020 UTC 22 January 2019
Temperature: 0.0°C (32°F)
Dewpoint: 0.0°C (32°F) [RH = 100%]
Pressure (altimeter): 30.06 inches Hg (1018.0 mb)
Winds: from the NW (310 degrees) at 5 MPH (4 knots; 2.1 m/s)
Visibility: 0.43 miles (0.69 km)
Ceiling: 600 feet AGL
Clouds: broken clouds at 600 feet AGL
Weather: BCFG  (patches of fog)

METAR text: LTAC 220950Z VRB01KT 1200 R03R/P1500N R21L/1500N R03L/P1500N R21R/1300N BCFG BKN001 01/00 Q1018 BECMG 4000 BR
Conditions at: LTAC (ANKARA/ESENBOGA , TR) observed 0950 UTC 22 January 2019
Temperature: 1.0°C (34°F)
Dewpoint: 0.0°C (32°F) [RH = 93%]
Pressure (altimeter): 30.06 inches Hg (1018.0 mb)
Winds: variable direction winds at 1 MPH (1 knots; 0.5 m/s)
Visibility: 0.75 miles (1.21 km)
Ceiling: 100 feet AGL
Clouds: broken clouds at 100 feet AGL
Weather: BCFG  (patches of fog)

METAR text: LTAC 220926Z VRB02KT 0700 R03R/1100U R21L/0550U R03L/0500U R21R/0550U BCFG BKN001 01/00 Q1018 BECMG 1400 BKN006 RMK RWY21L 15003KT 110V180 RWY03L VRB02KT RWY21R 14003KT
Conditions at: LTAC (ANKARA/ESENBOGA , TR) observed 0926 UTC 22 January 2019
Temperature: 1.0°C (34°F)
Dewpoint: 0.0°C (32°F) [RH = 93%]
Pressure (altimeter): 30.06 inches Hg (1018.0 mb)
Winds: variable direction winds at 2 MPH (2 knots; 1.0 m/s)
Visibility: 0.43 miles (0.69 km)
Ceiling: 100 feet AGL
Clouds: broken clouds at 100 feet AGL
Weather: BCFG  (patches of fog)

METAR text: LTAC 220920Z 14003KT 110V180 0500 R03R/0750U R21L/0150U R03L/0800U R21R/0175U FG BKN001 00/00 Q1018 BECMG 1400 BCFG BKN006
Conditions at: LTAC (ANKARA/ESENBOGA , TR) observed 0920 UTC 22 January 2019
Temperature: 0.0°C (32°F)
Dewpoint: 0.0°C (32°F) [RH = 100%]
Pressure (altimeter): 30.06 inches Hg (1018.0 mb)
Winds: from the SE (140 degrees) at 3 MPH (3 knots; 1.5 m/s)
Visibility: 0.31 miles (0.50 km)
Ceiling: 100 feet AGL
Clouds: broken clouds at 100 feet AGL
Weather: FG  (fog)

METAR text: LTAC 220914Z 14003KT 090V180 0500 R03R/0900U R21L/0150U R03L/0700U R21R/0150U FG BKN002 00/00 Q1018 BECMG 1400 BCFG BKN006 RMK RWY21L 15004KT RWY03L VRB01KT RWY21R 14004KT
Conditions at: LTAC (ANKARA/ESENBOGA , TR) observed 0914 UTC 22 January 2019
Temperature: 0.0°C (32°F)
Dewpoint: 0.0°C (32°F) [RH = 100%]
Pressure (altimeter): 30.06 inches Hg (1018.0 mb)
Winds: from the SE (140 degrees) at 3 MPH (3 knots; 1.5 m/s)
Visibility: 0.31 miles (0.50 km)
Ceiling: 200 feet AGL
Clouds: broken clouds at 200 feet AGL
Weather: FG  (fog)

METAR text: LTAC 220900Z 19003KT 130V230 0300 R03R/0275N R21L/0150U R03L/0450U R21R/0175U FG BKN001 00/00 Q1018 BECMG 0500 RMK RWY21L 13003KT RWY03L 00000KT RWY21R 11003KT
Conditions at: LTAC (ANKARA/ESENBOGA , TR) observed 0900 UTC 22 January 2019
Temperature: 0.0°C (32°F)
Dewpoint: 0.0°C (32°F) [RH = 100%]
Pressure (altimeter): 30.06 inches Hg (1018.0 mb)
Winds: from the S (190 degrees) at 3 MPH (3 knots; 1.5 m/s)
Visibility: 0.19 miles (0.31 km)
Ceiling: 100 feet AGL
Clouds: broken clouds at 100 feet AGL
Weather: FG  (fog)

METAR text: LTAC 220850Z VRB01KT 0700 R03R/0800U R21L/0150U R03L/0450U R21R/0175U FG BKN001 00/00 Q1018 BECMG 2500 BR SCT025 RMK RWY21L VRB02KT RWY03L VRB01KT RWY21R 09002KT
Conditions at: LTAC (ANKARA/ESENBOGA , TR) observed 0850 UTC 22 January 2019
Temperature: 0.0°C (32°F)
Dewpoint: 0.0°C (32°F) [RH = 100%]
Pressure (altimeter): 30.06 inches Hg (1018.0 mb)
Winds: variable direction winds at 1 MPH (1 knots; 0.5 m/s)
Visibility: 0.43 miles (0.69 km)
Ceiling: 100 feet AGL
Clouds: broken clouds at 100 feet AGL
Weather: FG  (fog)

METAR text: LTAC 220820Z 33003KT 280V050 0250 R03R/0150N R21L/0325N R03L/0125N R21R/0250N FZFG BKN001 M01/M01 Q1018 BECMG 1200 BCFG BKN003
Conditions at: LTAC (ANKARA/ESENBOGA , TR) observed 0820 UTC 22 January 2019
Temperature: -1.0°C (30°F)
Dewpoint: -1.0°C (30°F) [RH = 100%]
Pressure (altimeter): 30.06 inches Hg (1018.0 mb)
Winds: from the NNW (330 degrees) at 3 MPH (3 knots; 1.5 m/s)
Visibility: 0.16 miles (0.26 km)
Ceiling: 100 feet AGL
Clouds: broken clouds at 100 feet AGL
Weather: FZFG  (freezing fog)

METAR text: LTAC 220800Z 00000KT 0500 R03R/0225U R21L/0500U R03L/0150N R21R/1100U BCFG BKN001 M01/M01 Q1018 BECMG FM0820 1200 BKN003 RMK RWY21L 00000KT RWY03L VRB01KT RWY21R 00000KT
Conditions at: LTAC (ANKARA/ESENBOGA , TR) observed 0800 UTC 22 January 2019
Temperature: -1.0°C (30°F)
Dewpoint: -1.0°C (30°F) [RH = 100%]
Pressure (altimeter): 30.06 inches Hg (1018.0 mb)
Winds: calm
Visibility: 0.31 miles (0.50 km)
Ceiling: 100 feet AGL
Clouds: broken clouds at 100 feet AGL
Weather: BCFG  (patches of fog)

METAR text: LTAC 220750Z 00000KT 0300 R03R/0200U R21L/0275U R03L/0325U R21R/0400U FZFG BKN001 M01/M01 Q1018 BECMG FM0820 1200 BCFG BKN003
Conditions at: LTAC (ANKARA/ESENBOGA , TR) observed 0750 UTC 22 January 2019
Temperature: -1.0°C (30°F)
Dewpoint: -1.0°C (30°F) [RH = 100%]
Pressure (altimeter): 30.06 inches Hg (1018.0 mb)
Winds: calm
Visibility: 0.19 miles (0.31 km)
Ceiling: 100 feet AGL
Clouds: broken clouds at 100 feet AGL
Weather: FZFG  (freezing fog)

METAR text: LTAC 220720Z 15003KT 130V220 0300 R03R/0200N R21L/0200U R03L/0375U R21R/0225U FZFG BKN001 M01/M01 Q1018 BECMG FM0800 1200 BCFG BKN003
Conditions at: LTAC (ANKARA/ESENBOGA , TR) observed 0720 UTC 22 January 2019
Temperature: -1.0°C (30°F)
Dewpoint: -1.0°C (30°F) [RH = 100%]
Pressure (altimeter): 30.06 inches Hg (1018.0 mb)
Winds: from the SSE (150 degrees) at 3 MPH (3 knots; 1.5 m/s)
Visibility: 0.19 miles (0.31 km)
Ceiling: 100 feet AGL
Clouds: broken clouds at 100 feet AGL
Weather: FZFG  (freezing fog)

METAR text: LTAC 220650Z VRB02KT 0300 R03R/0800U R21L/0175U R03L/0175U R21R/0175U FZFG BKN001 M01/M01 Q1018 BECMG FM0800 1200 BCFG BKN003
Conditions at: LTAC (ANKARA/ESENBOGA , TR) observed 0650 UTC 22 January 2019
Temperature: -1.0°C (30°F)
Dewpoint: -1.0°C (30°F) [RH = 100%]
Pressure (altimeter): 30.06 inches Hg (1018.0 mb)
Winds: variable direction winds at 2 MPH (2 knots; 1.0 m/s)
Visibility: 0.19 miles (0.31 km)
Ceiling: 100 feet AGL
Clouds: broken clouds at 100 feet AGL
Weather: FZFG  (freezing fog)

METAR text: LTAC 220620Z VRB01KT 0300 R03R/0175U R21L/0250U R03L/0200U R21R/0225U FZFG BKN001 M01/M01 Q1018 BECMG FM0800 1200 BCFG BKN003
Conditions at: LTAC (ANKARA/ESENBOGA , TR) observed 0620 UTC 22 January 2019
Temperature: -1.0°C (30°F)
Dewpoint: -1.0°C (30°F) [RH = 100%]
Pressure (altimeter): 30.06 inches Hg (1018.0 mb)
Winds: variable direction winds at 1 MPH (1 knots; 0.5 m/s)
Visibility: 0.19 miles (0.31 km)
Ceiling: 100 feet AGL
Clouds: broken clouds at 100 feet AGL
Weather: FZFG  (freezing fog)

METAR text: LTAC 220550Z 00000KT 0300 R03R/0225U R21L/0250U R03L/0200U R21R/0225U FZFG BKN001 M01/M01 Q1017 NOSIG
Conditions at: LTAC (ANKARA/ESENBOGA , TR) observed 0550 UTC 22 January 2019
Temperature: -1.0°C (30°F)
Dewpoint: -1.0°C (30°F) [RH = 100%]
Pressure (altimeter): 30.03 inches Hg (1017.0 mb)
Winds: calm
Visibility: 0.19 miles (0.31 km)
Ceiling: 100 feet AGL
Clouds: broken clouds at 100 feet AGL
Weather: FZFG  (freezing fog)

METAR text: LTAC 220520Z 00000KT 0300 R03R/0175U R21L/0150U R03L/0175U R21R/0150U FZFG BKN001 M01/M01 Q1017 NOSIG
Conditions at: LTAC (ANKARA/ESENBOGA , TR) observed 0520 UTC 22 January 2019
Temperature: -1.0°C (30°F)
Dewpoint: -1.0°C (30°F) [RH = 100%]
Pressure (altimeter): 30.03 inches Hg (1017.0 mb)
Winds: calm
Visibility: 0.19 miles (0.31 km)
Ceiling: 100 feet AGL
Clouds: broken clouds at 100 feet AGL
Weather: FZFG  (freezing fog)

METAR text: LTAC 220450Z VRB01KT 0300 R03R/0250U R21L/0225U R03L/0225U R21R/0225U FZFG BKN001 M01/M02 Q1017 NOSIG
Conditions at: LTAC (ANKARA/ESENBOGA , TR) observed 0450 UTC 22 January 2019
Temperature: -1.0°C (30°F)
Dewpoint: -2.0°C (28°F) [RH = 93%]
Pressure (altimeter): 30.03 inches Hg (1017.0 mb)
Winds: variable direction winds at 1 MPH (1 knots; 0.5 m/s)
Visibility: 0.19 miles (0.31 km)
Ceiling: 100 feet AGL
Clouds: broken clouds at 100 feet AGL
Weather: FZFG  (freezing fog)

METAR text: LTAC 220420Z 00000KT 0400 R03R/0250U R21L/0200U R03L/0225U R21R/0225U FZFG BKN001 M01/M01 Q1017 NOSIG
Conditions at: LTAC (ANKARA/ESENBOGA , TR) observed 0420 UTC 22 January 2019
Temperature: -1.0°C (30°F)
Dewpoint: -1.0°C (30°F) [RH = 100%]
Pressure (altimeter): 30.03 inches Hg (1017.0 mb)
Winds: calm
Visibility: 0.25 miles (0.40 km)
Ceiling: 100 feet AGL
Clouds: broken clouds at 100 feet AGL
Weather: FZFG  (freezing fog)

METAR text: LTAC 220350Z VRB01KT 0400 R03R/0275U R21L/0200U R03L/0225U R21R/0200U FZFG BKN001 M01/M01 Q1017 NOSIG
Conditions at: LTAC (ANKARA/ESENBOGA , TR) observed 0350 UTC 22 January 2019
Temperature: -1.0°C (30°F)
Dewpoint: -1.0°C (30°F) [RH = 100%]
Pressure (altimeter): 30.03 inches Hg (1017.0 mb)
Winds: variable direction winds at 1 MPH (1 knots; 0.5 m/s)
Visibility: 0.25 miles (0.40 km)
Ceiling: 100 feet AGL
Clouds: broken clouds at 100 feet AGL
Weather: FZFG  (freezing fog)

METAR text: LTAC 220320Z 00000KT 0400 R03R/0275U R21L/0300N R03L/0275N R21R/0300N FZFG BKN001 M01/M01 Q1017 NOSIG
Conditions at: LTAC (ANKARA/ESENBOGA , TR) observed 0320 UTC 22 January 2019
Temperature: -1.0°C (30°F)
Dewpoint: -1.0°C (30°F) [RH = 100%]
Pressure (altimeter): 30.03 inches Hg (1017.0 mb)
Winds: calm
Visibility: 0.25 miles (0.40 km)
Ceiling: 100 feet AGL
Clouds: broken clouds at 100 feet AGL
Weather: FZFG  (freezing fog)

Forecast for: LTAC (ANKARA/ESENBOGA , TR)
Text: TAF LTAC 231040Z 2312/2412 VRB02KT 9999 SCT040 BKN100
Forecast period: 1200 UTC 23 January 2019 to 1200 UTC 24 January 2019
Forecast type: FROM: standard forecast or significant change
Winds: variable direction winds at 2 MPH (2 knots; 1.0 m/s)
Visibility: 6 or more miles 10+ km)
Ceiling: 10000 feet AGL
Clouds: scattered clouds at 4000 feet AGL
broken clouds at 10000 feet AGL
Weather: no significant weather forecast for this period
Text: TEMPO 2320/2324 -RASN BKN030 BKN090
Forecast period: 2000 UTC 23 January 2019 to 0000 UTC 24 January 2019
Forecast type: TEMPORARY: The following changes expected for less than half the time period
Visibility: missing
Ceiling: 3000 feet AGL
Clouds: broken clouds at 3000 feet AGL
broken clouds at 9000 feet AGL
Weather: -RA -SN  (light rain, light snow)
Text: TEMPO 2402/2406 4000 BR
Forecast period: 0200 to 0600 UTC 24 January 2019
Forecast type: TEMPORARY: The following changes expected for less than half the time period
Visibility: 2.49 miles (4.01 km)
Ceiling: unknown
Clouds: missing
Weather: BR  (mist)